sensor_id;sensor_type;location;lat;lon;timestamp;P1;durP1;ratioP1;P2;durP2;ratioP2
35110;SDS011;21290;50.158;8.658;2023-08-06T00:01:10;5.65;;;4.68;;
35110;SDS011;21290;50.158;8.658;2023-08-06T00:03:37;7.25;;;4.28;;
35110;SDS011;21290;50.158;8.658;2023-08-06T00:06:06;6.28;;;4.40;;
35110;SDS011;21290;50.158;8.658;2023-08-06T00:08:33;5.05;;;4.55;;
35110;SDS011;21290;50.158;8.658;2023-08-06T00:11:00;7.93;;;4.50;;
35110;SDS011;21290;50.158;8.658;2023-08-06T00:13:27;4.75;;;4.28;;
35110;SDS011;21290;50.158;8.658;2023-08-06T00:15:53;5.35;;;4.65;;
35110;SDS011;21290;50.158;8.658;2023-08-06T00:18:20;9.55;;;4.53;;
35110;SDS011;21290;50.158;8.658;2023-08-06T00:20:47;7.05;;;4.60;;
35110;SDS011;21290;50.158;8.658;2023-08-06T00:23:13;5.63;;;4.30;;
35110;SDS011;21290;50.158;8.658;2023-08-06T00:25:40;4.90;;;4.40;;
35110;SDS011;21290;50.158;8.658;2023-08-06T00:28:07;6.57;;;4.53;;
35110;SDS011;21290;50.158;8.658;2023-08-06T00:30:34;5.63;;;4.40;;
35110;SDS011;21290;50.158;8.658;2023-08-06T00:33:00;4.93;;;3.88;;
35110;SDS011;21290;50.158;8.658;2023-08-06T00:35:27;9.60;;;4.55;;
35110;SDS011;21290;50.158;8.658;2023-08-06T00:37:54;6.75;;;4.30;;
35110;SDS011;21290;50.158;8.658;2023-08-06T00:40:20;6.32;;;4.53;;
35110;SDS011;21290;50.158;8.658;2023-08-06T00:42:50;7.13;;;4.45;;
35110;SDS011;21290;50.158;8.658;2023-08-06T00:45:17;6.88;;;4.68;;
35110;SDS011;21290;50.158;8.658;2023-08-06T00:47:43;6.20;;;4.03;;
35110;SDS011;21290;50.158;8.658;2023-08-06T00:50:11;7.60;;;4.20;;
35110;SDS011;21290;50.158;8.658;2023-08-06T00:52:38;4.68;;;4.28;;
35110;SDS011;21290;50.158;8.658;2023-08-06T00:55:05;5.75;;;4.60;;
35110;SDS011;21290;50.158;8.658;2023-08-06T00:57:32;9.05;;;4.65;;
35110;SDS011;21290;50.158;8.658;2023-08-06T00:59:59;7.70;;;4.35;;
35110;SDS011;21290;50.158;8.658;2023-08-06T01:02:26;9.13;;;5.30;;
35110;SDS011;21290;50.158;8.658;2023-08-06T01:04:53;6.90;;;4.60;;
35110;SDS011;21290;50.158;8.658;2023-08-06T01:13:24;6.43;;;4.40;;
35110;SDS011;21290;50.158;8.658;2023-08-06T01:16:04;6.90;;;4.93;;
35110;SDS011;21290;50.158;8.658;2023-08-06T01:18:34;6.70;;;4.68;;
35110;SDS011;21290;50.158;8.658;2023-08-06T01:21:01;6.85;;;4.20;;
35110;SDS011;21290;50.158;8.658;2023-08-06T01:23:28;6.72;;;4.28;;
35110;SDS011;21290;50.158;8.658;2023-08-06T01:26:15;7.53;;;4.47;;
35110;SDS011;21290;50.158;8.658;2023-08-06T01:28:59;5.13;;;4.05;;
35110;SDS011;21290;50.158;8.658;2023-08-06T01:31:43;11.88;;;4.43;;
35110;SDS011;21290;50.158;8.658;2023-08-06T01:34:22;4.95;;;4.00;;
35110;SDS011;21290;50.158;8.658;2023-08-06T01:36:51;6.45;;;4.75;;
35110;SDS011;21290;50.158;8.658;2023-08-06T01:39:18;6.00;;;4.28;;
35110;SDS011;21290;50.158;8.658;2023-08-06T01:41:48;7.50;;;4.07;;
35110;SDS011;21290;50.158;8.658;2023-08-06T01:44:16;4.97;;;4.38;;
35110;SDS011;21290;50.158;8.658;2023-08-06T01:46:43;9.38;;;4.35;;
35110;SDS011;21290;50.158;8.658;2023-08-06T01:49:09;6.70;;;4.32;;
35110;SDS011;21290;50.158;8.658;2023-08-06T01:51:36;5.15;;;4.22;;
35110;SDS011;21290;50.158;8.658;2023-08-06T01:54:03;6.05;;;4.30;;
35110;SDS011;21290;50.158;8.658;2023-08-06T01:56:29;5.38;;;3.88;;
35110;SDS011;21290;50.158;8.658;2023-08-06T01:58:56;10.63;;;4.65;;
35110;SDS011;21290;50.158;8.658;2023-08-06T02:01:22;6.40;;;4.22;;
35110;SDS011;21290;50.158;8.658;2023-08-06T02:03:49;7.22;;;4.10;;
35110;SDS011;21290;50.158;8.658;2023-08-06T02:06:16;9.00;;;3.90;;
35110;SDS011;21290;50.158;8.658;2023-08-06T02:08:43;4.35;;;3.95;;
35110;SDS011;21290;50.158;8.658;2023-08-06T02:11:09;4.97;;;3.95;;
35110;SDS011;21290;50.158;8.658;2023-08-06T02:13:36;4.78;;;4.00;;
35110;SDS011;21290;50.158;8.658;2023-08-06T02:16:03;4.35;;;3.80;;
35110;SDS011;21290;50.158;8.658;2023-08-06T02:18:29;5.70;;;3.67;;
35110;SDS011;21290;50.158;8.658;2023-08-06T02:20:56;5.95;;;4.10;;
35110;SDS011;21290;50.158;8.658;2023-08-06T02:23:24;5.63;;;4.13;;
35110;SDS011;21290;50.158;8.658;2023-08-06T02:25:58;10.63;;;4.85;;
35110;SDS011;21290;50.158;8.658;2023-08-06T02:28:26;9.07;;;3.92;;
35110;SDS011;21290;50.158;8.658;2023-08-06T02:30:53;5.43;;;3.70;;
35110;SDS011;21290;50.158;8.658;2023-08-06T02:33:19;3.80;;;3.47;;
35110;SDS011;21290;50.158;8.658;2023-08-06T02:35:46;7.40;;;3.60;;
35110;SDS011;21290;50.158;8.658;2023-08-06T02:38:13;5.15;;;3.60;;
35110;SDS011;21290;50.158;8.658;2023-08-06T02:40:46;5.72;;;3.58;;
35110;SDS011;21290;50.158;8.658;2023-08-06T02:43:13;4.82;;;3.40;;
35110;SDS011;21290;50.158;8.658;2023-08-06T02:45:40;7.78;;;3.78;;
35110;SDS011;21290;50.158;8.658;2023-08-06T02:48:07;6.13;;;3.42;;
35110;SDS011;21290;50.158;8.658;2023-08-06T02:50:40;12.70;;;3.45;;
35110;SDS011;21290;50.158;8.658;2023-08-06T02:53:08;5.85;;;3.38;;
35110;SDS011;21290;50.158;8.658;2023-08-06T02:55:34;12.90;;;3.60;;
35110;SDS011;21290;50.158;8.658;2023-08-06T02:58:01;5.65;;;3.65;;
35110;SDS011;21290;50.158;8.658;2023-08-06T03:00:29;5.13;;;3.45;;
35110;SDS011;21290;50.158;8.658;2023-08-06T03:02:56;3.65;;;3.22;;
35110;SDS011;21290;50.158;8.658;2023-08-06T03:05:22;4.07;;;3.42;;
35110;SDS011;21290;50.158;8.658;2023-08-06T03:07:49;10.52;;;3.13;;
35110;SDS011;21290;50.158;8.658;2023-08-06T03:10:16;9.55;;;2.63;;
35110;SDS011;21290;50.158;8.658;2023-08-06T03:12:42;3.85;;;2.88;;
35110;SDS011;21290;50.158;8.658;2023-08-06T03:15:09;8.32;;;3.00;;
35110;SDS011;21290;50.158;8.658;2023-08-06T03:17:36;4.72;;;2.58;;
35110;SDS011;21290;50.158;8.658;2023-08-06T03:20:03;4.30;;;2.67;;
35110;SDS011;21290;50.158;8.658;2023-08-06T03:22:30;4.40;;;2.72;;
35110;SDS011;21290;50.158;8.658;2023-08-06T03:24:57;3.67;;;2.80;;
35110;SDS011;21290;50.158;8.658;2023-08-06T03:27:23;10.68;;;2.78;;
35110;SDS011;21290;50.158;8.658;2023-08-06T03:29:50;5.45;;;2.90;;
35110;SDS011;21290;50.158;8.658;2023-08-06T03:32:17;6.05;;;3.15;;
35110;SDS011;21290;50.158;8.658;2023-08-06T03:34:43;5.97;;;3.13;;
35110;SDS011;21290;50.158;8.658;2023-08-06T03:37:10;4.50;;;3.10;;
35110;SDS011;21290;50.158;8.658;2023-08-06T03:39:37;5.20;;;3.17;;
35110;SDS011;21290;50.158;8.658;2023-08-06T03:42:04;5.72;;;2.80;;
35110;SDS011;21290;50.158;8.658;2023-08-06T03:44:31;7.30;;;3.50;;
35110;SDS011;21290;50.158;8.658;2023-08-06T03:46:57;4.30;;;2.80;;
35110;SDS011;21290;50.158;8.658;2023-08-06T03:49:24;10.82;;;2.95;;
35110;SDS011;21290;50.158;8.658;2023-08-06T03:51:51;2.90;;;2.42;;
35110;SDS011;21290;50.158;8.658;2023-08-06T03:54:18;3.33;;;2.65;;
35110;SDS011;21290;50.158;8.658;2023-08-06T03:56:44;6.38;;;2.63;;
35110;SDS011;21290;50.158;8.658;2023-08-06T03:59:11;4.05;;;2.78;;
35110;SDS011;21290;50.158;8.658;2023-08-06T04:01:38;4.30;;;3.13;;
35110;SDS011;21290;50.158;8.658;2023-08-06T04:04:04;3.95;;;3.03;;
35110;SDS011;21290;50.158;8.658;2023-08-06T04:06:31;7.65;;;2.63;;
35110;SDS011;21290;50.158;8.658;2023-08-06T04:08:58;4.78;;;2.28;;
35110;SDS011;21290;50.158;8.658;2023-08-06T04:11:24;9.82;;;3.15;;
35110;SDS011;21290;50.158;8.658;2023-08-06T04:13:51;5.78;;;2.83;;
35110;SDS011;21290;50.158;8.658;2023-08-06T04:16:18;7.88;;;2.67;;
35110;SDS011;21290;50.158;8.658;2023-08-06T04:18:44;8.30;;;2.92;;
35110;SDS011;21290;50.158;8.658;2023-08-06T04:21:12;3.20;;;2.45;;
35110;SDS011;21290;50.158;8.658;2023-08-06T04:23:38;4.07;;;2.67;;
35110;SDS011;21290;50.158;8.658;2023-08-06T04:26:05;10.40;;;3.00;;
35110;SDS011;21290;50.158;8.658;2023-08-06T04:28:32;5.10;;;2.70;;
35110;SDS011;21290;50.158;8.658;2023-08-06T04:30:59;3.65;;;2.60;;
35110;SDS011;21290;50.158;8.658;2023-08-06T04:33:26;7.03;;;2.65;;
35110;SDS011;21290;50.158;8.658;2023-08-06T04:35:55;3.45;;;2.20;;
35110;SDS011;21290;50.158;8.658;2023-08-06T04:38:25;5.40;;;2.17;;
35110;SDS011;21290;50.158;8.658;2023-08-06T04:40:52;5.05;;;2.38;;
35110;SDS011;21290;50.158;8.658;2023-08-06T04:43:19;6.88;;;2.40;;
35110;SDS011;21290;50.158;8.658;2023-08-06T04:45:46;4.25;;;2.42;;
35110;SDS011;21290;50.158;8.658;2023-08-06T04:48:17;6.78;;;2.80;;
35110;SDS011;21290;50.158;8.658;2023-08-06T04:50:46;5.72;;;2.40;;
35110;SDS011;21290;50.158;8.658;2023-08-06T04:53:15;3.85;;;2.20;;
35110;SDS011;21290;50.158;8.658;2023-08-06T04:55:42;3.58;;;2.30;;
35110;SDS011;21290;50.158;8.658;2023-08-06T04:58:09;5.47;;;2.38;;
35110;SDS011;21290;50.158;8.658;2023-08-06T05:00:36;5.28;;;2.72;;
35110;SDS011;21290;50.158;8.658;2023-08-06T05:03:03;5.25;;;2.13;;
35110;SDS011;21290;50.158;8.658;2023-08-06T05:05:30;4.72;;;2.28;;
35110;SDS011;21290;50.158;8.658;2023-08-06T05:07:57;4.25;;;2.30;;
35110;SDS011;21290;50.158;8.658;2023-08-06T05:10:24;3.70;;;2.13;;
35110;SDS011;21290;50.158;8.658;2023-08-06T05:12:52;4.65;;;2.20;;
35110;SDS011;21290;50.158;8.658;2023-08-06T05:15:19;5.38;;;2.33;;
35110;SDS011;21290;50.158;8.658;2023-08-06T05:17:46;4.47;;;2.60;;
35110;SDS011;21290;50.158;8.658;2023-08-06T05:20:12;9.75;;;2.83;;
35110;SDS011;21290;50.158;8.658;2023-08-06T05:22:39;7.07;;;2.70;;
35110;SDS011;21290;50.158;8.658;2023-08-06T05:25:06;4.38;;;2.00;;
35110;SDS011;21290;50.158;8.658;2023-08-06T05:27:33;3.50;;;2.20;;
35110;SDS011;21290;50.158;8.658;2023-08-06T05:29:59;4.65;;;2.22;;
35110;SDS011;21290;50.158;8.658;2023-08-06T05:32:26;6.00;;;2.25;;
35110;SDS011;21290;50.158;8.658;2023-08-06T05:34:53;6.38;;;2.70;;
35110;SDS011;21290;50.158;8.658;2023-08-06T05:37:20;3.83;;;2.13;;
35110;SDS011;21290;50.158;8.658;2023-08-06T05:39:46;3.65;;;2.10;;
35110;SDS011;21290;50.158;8.658;2023-08-06T05:42:13;3.97;;;2.28;;
35110;SDS011;21290;50.158;8.658;2023-08-06T05:44:40;7.22;;;1.98;;
35110;SDS011;21290;50.158;8.658;2023-08-06T05:47:06;4.82;;;1.80;;
35110;SDS011;21290;50.158;8.658;2023-08-06T05:49:33;2.70;;;1.52;;
35110;SDS011;21290;50.158;8.658;2023-08-06T05:52:00;4.13;;;1.83;;
35110;SDS011;21290;50.158;8.658;2023-08-06T05:54:26;2.50;;;1.70;;
35110;SDS011;21290;50.158;8.658;2023-08-06T05:56:53;2.90;;;1.60;;
35110;SDS011;21290;50.158;8.658;2023-08-06T05:59:20;2.72;;;1.60;;
35110;SDS011;21290;50.158;8.658;2023-08-06T06:01:46;3.92;;;1.80;;
35110;SDS011;21290;50.158;8.658;2023-08-06T06:04:13;1.60;;;1.48;;
35110;SDS011;21290;50.158;8.658;2023-08-06T06:06:40;7.38;;;1.90;;
35110;SDS011;21290;50.158;8.658;2023-08-06T06:09:07;2.42;;;1.60;;
35110;SDS011;21290;50.158;8.658;2023-08-06T06:11:34;2.70;;;1.80;;
35110;SDS011;21290;50.158;8.658;2023-08-06T06:14:01;5.13;;;1.85;;
35110;SDS011;21290;50.158;8.658;2023-08-06T06:16:28;4.63;;;1.77;;
35110;SDS011;21290;50.158;8.658;2023-08-06T06:18:54;4.78;;;1.88;;
35110;SDS011;21290;50.158;8.658;2023-08-06T06:21:21;5.45;;;1.98;;
35110;SDS011;21290;50.158;8.658;2023-08-06T06:23:48;4.03;;;1.60;;
35110;SDS011;21290;50.158;8.658;2023-08-06T06:26:18;2.97;;;1.50;;
35110;SDS011;21290;50.158;8.658;2023-08-06T06:28:45;1.77;;;1.40;;
35110;SDS011;21290;50.158;8.658;2023-08-06T06:31:11;3.78;;;1.80;;
35110;SDS011;21290;50.158;8.658;2023-08-06T06:33:38;2.17;;;1.30;;
35110;SDS011;21290;50.158;8.658;2023-08-06T06:36:05;2.75;;;1.05;;
35110;SDS011;21290;50.158;8.658;2023-08-06T06:38:33;1.92;;;0.80;;
35110;SDS011;21290;50.158;8.658;2023-08-06T06:41:00;3.20;;;0.93;;
35110;SDS011;21290;50.158;8.658;2023-08-06T06:43:29;2.65;;;0.90;;
35110;SDS011;21290;50.158;8.658;2023-08-06T06:45:56;1.65;;;0.85;;
35110;SDS011;21290;50.158;8.658;2023-08-06T06:48:27;2.40;;;0.82;;
35110;SDS011;21290;50.158;8.658;2023-08-06T06:50:56;2.55;;;0.90;;
35110;SDS011;21290;50.158;8.658;2023-08-06T06:53:22;2.47;;;0.82;;
35110;SDS011;21290;50.158;8.658;2023-08-06T06:55:53;3.15;;;1.10;;
35110;SDS011;21290;50.158;8.658;2023-08-06T06:58:21;3.65;;;0.93;;
35110;SDS011;21290;50.158;8.658;2023-08-06T07:00:48;1.33;;;0.93;;
35110;SDS011;21290;50.158;8.658;2023-08-06T07:03:15;1.77;;;0.98;;
35110;SDS011;21290;50.158;8.658;2023-08-06T07:05:42;1.63;;;0.80;;
35110;SDS011;21290;50.158;8.658;2023-08-06T07:08:10;7.38;;;1.20;;
35110;SDS011;21290;50.158;8.658;2023-08-06T07:10:37;2.20;;;1.10;;
35110;SDS011;21290;50.158;8.658;2023-08-06T07:13:07;2.42;;;1.00;;
35110;SDS011;21290;50.158;8.658;2023-08-06T07:15:34;1.80;;;1.10;;
35110;SDS011;21290;50.158;8.658;2023-08-06T07:18:01;1.25;;;1.10;;
35110;SDS011;21290;50.158;8.658;2023-08-06T07:20:28;1.60;;;1.10;;
35110;SDS011;21290;50.158;8.658;2023-08-06T07:22:58;1.90;;;0.93;;
35110;SDS011;21290;50.158;8.658;2023-08-06T07:25:25;1.50;;;1.10;;
35110;SDS011;21290;50.158;8.658;2023-08-06T07:27:51;2.45;;;1.00;;
35110;SDS011;21290;50.158;8.658;2023-08-06T07:30:18;1.10;;;1.00;;
35110;SDS011;21290;50.158;8.658;2023-08-06T07:32:45;3.42;;;1.35;;
35110;SDS011;21290;50.158;8.658;2023-08-06T07:35:11;1.27;;;0.68;;
35110;SDS011;21290;50.158;8.658;2023-08-06T07:37:40;1.17;;;0.70;;
35110;SDS011;21290;50.158;8.658;2023-08-06T07:40:07;2.05;;;0.90;;
35110;SDS011;21290;50.158;8.658;2023-08-06T07:42:35;2.25;;;0.77;;
35110;SDS011;21290;50.158;8.658;2023-08-06T07:45:01;4.30;;;0.90;;
35110;SDS011;21290;50.158;8.658;2023-08-06T07:47:28;1.08;;;0.98;;
35110;SDS011;21290;50.158;8.658;2023-08-06T07:49:55;0.98;;;0.80;;
35110;SDS011;21290;50.158;8.658;2023-08-06T07:52:22;1.45;;;0.82;;
35110;SDS011;21290;50.158;8.658;2023-08-06T07:54:48;1.60;;;0.88;;
35110;SDS011;21290;50.158;8.658;2023-08-06T07:57:15;1.50;;;1.05;;
35110;SDS011;21290;50.158;8.658;2023-08-06T07:59:41;1.38;;;1.00;;
35110;SDS011;21290;50.158;8.658;2023-08-06T08:02:08;2.10;;;1.27;;
35110;SDS011;21290;50.158;8.658;2023-08-06T08:04:35;2.10;;;0.90;;
35110;SDS011;21290;50.158;8.658;2023-08-06T08:07:01;1.75;;;0.80;;
35110;SDS011;21290;50.158;8.658;2023-08-06T08:09:28;2.35;;;0.90;;
35110;SDS011;21290;50.158;8.658;2023-08-06T08:11:55;0.95;;;0.80;;
35110;SDS011;21290;50.158;8.658;2023-08-06T08:14:26;1.90;;;1.10;;
35110;SDS011;21290;50.158;8.658;2023-08-06T08:16:53;7.43;;;1.05;;
35110;SDS011;21290;50.158;8.658;2023-08-06T08:19:19;3.15;;;0.77;;
35110;SDS011;21290;50.158;8.658;2023-08-06T08:21:47;2.25;;;1.08;;
35110;SDS011;21290;50.158;8.658;2023-08-06T08:24:13;7.10;;;1.15;;
35110;SDS011;21290;50.158;8.658;2023-08-06T08:26:40;1.00;;;0.90;;
35110;SDS011;21290;50.158;8.658;2023-08-06T08:29:07;2.53;;;1.10;;
35110;SDS011;21290;50.158;8.658;2023-08-06T08:31:33;1.25;;;0.90;;
35110;SDS011;21290;50.158;8.658;2023-08-06T08:34:05;3.38;;;1.63;;
35110;SDS011;21290;50.158;8.658;2023-08-06T08:36:32;5.72;;;1.30;;
35110;SDS011;21290;50.158;8.658;2023-08-06T08:38:58;1.75;;;0.82;;
35110;SDS011;21290;50.158;8.658;2023-08-06T08:41:27;0.88;;;0.75;;
35110;SDS011;21290;50.158;8.658;2023-08-06T08:43:55;3.67;;;0.85;;
35110;SDS011;21290;50.158;8.658;2023-08-06T08:46:24;3.72;;;0.93;;
35110;SDS011;21290;50.158;8.658;2023-08-06T08:51:20;2.30;;;0.70;;
35110;SDS011;21290;50.158;8.658;2023-08-06T08:53:47;2.60;;;0.80;;
35110;SDS011;21290;50.158;8.658;2023-08-06T08:56:18;1.00;;;0.70;;
35110;SDS011;21290;50.158;8.658;2023-08-06T08:58:45;2.00;;;0.65;;
35110;SDS011;21290;50.158;8.658;2023-08-06T09:01:12;0.98;;;0.73;;
35110;SDS011;21290;50.158;8.658;2023-08-06T09:03:39;2.65;;;1.02;;
35110;SDS011;21290;50.158;8.658;2023-08-06T09:06:06;2.10;;;1.10;;
35110;SDS011;21290;50.158;8.658;2023-08-06T09:08:47;1.83;;;1.15;;
35110;SDS011;21290;50.158;8.658;2023-08-06T09:11:33;2.63;;;1.30;;
35110;SDS011;21290;50.158;8.658;2023-08-06T09:14:07;2.50;;;1.40;;
35110;SDS011;21290;50.158;8.658;2023-08-06T09:16:35;8.40;;;4.93;;
35110;SDS011;21290;50.158;8.658;2023-08-06T09:19:09;3.75;;;0.70;;
35110;SDS011;21290;50.158;8.658;2023-08-06T09:21:39;1.50;;;0.70;;
35110;SDS011;21290;50.158;8.658;2023-08-06T09:24:10;1.83;;;1.00;;
35110;SDS011;21290;50.158;8.658;2023-08-06T09:26:38;0.70;;;0.70;;
35110;SDS011;21290;50.158;8.658;2023-08-06T09:29:06;6.50;;;0.80;;
35110;SDS011;21290;50.158;8.658;2023-08-06T09:34:11;3.60;;;0.73;;
35110;SDS011;21290;50.158;8.658;2023-08-06T09:36:43;0.80;;;0.70;;
35110;SDS011;21290;50.158;8.658;2023-08-06T09:39:14;1.48;;;0.60;;
35110;SDS011;21290;50.158;8.658;2023-08-06T09:41:42;1.20;;;0.43;;
35110;SDS011;21290;50.158;8.658;2023-08-06T09:44:16;1.00;;;0.60;;
35110;SDS011;21290;50.158;8.658;2023-08-06T09:46:49;1.45;;;0.82;;
35110;SDS011;21290;50.158;8.658;2023-08-06T09:49:22;0.60;;;0.47;;
35110;SDS011;21290;50.158;8.658;2023-08-06T09:51:53;2.28;;;0.50;;
35110;SDS011;21290;50.158;8.658;2023-08-06T09:54:24;1.13;;;0.32;;
35110;SDS011;21290;50.158;8.658;2023-08-06T09:56:54;1.20;;;0.38;;
35110;SDS011;21290;50.158;8.658;2023-08-06T09:59:22;0.22;;;0.20;;
35110;SDS011;21290;50.158;8.658;2023-08-06T10:01:49;1.40;;;0.20;;
35110;SDS011;21290;50.158;8.658;2023-08-06T10:06:50;0.75;;;0.20;;
35110;SDS011;21290;50.158;8.658;2023-08-06T10:09:18;0.65;;;0.20;;
35110;SDS011;21290;50.158;8.658;2023-08-06T10:11:50;0.68;;;0.30;;
35110;SDS011;21290;50.158;8.658;2023-08-06T10:14:23;3.10;;;0.40;;
35110;SDS011;21290;50.158;8.658;2023-08-06T10:16:52;1.17;;;0.40;;
35110;SDS011;21290;50.158;8.658;2023-08-06T10:19:23;0.52;;;0.40;;
35110;SDS011;21290;50.158;8.658;2023-08-06T10:24:51;1.02;;;0.38;;
35110;SDS011;21290;50.158;8.658;2023-08-06T10:27:22;0.30;;;0.30;;
35110;SDS011;21290;50.158;8.658;2023-08-06T10:32:47;0.88;;;0.47;;
35110;SDS011;21290;50.158;8.658;2023-08-06T10:40:31;1.23;;;0.60;;
35110;SDS011;21290;50.158;8.658;2023-08-06T10:43:00;0.75;;;0.40;;
35110;SDS011;21290;50.158;8.658;2023-08-06T10:45:27;1.27;;;0.52;;
35110;SDS011;21290;50.158;8.658;2023-08-06T10:47:57;1.95;;;0.50;;
35110;SDS011;21290;50.158;8.658;2023-08-06T10:50:24;0.77;;;0.60;;
35110;SDS011;21290;50.158;8.658;2023-08-06T10:52:51;0.95;;;0.30;;
35110;SDS011;21290;50.158;8.658;2023-08-06T10:55:25;1.88;;;0.40;;
35110;SDS011;21290;50.158;8.658;2023-08-06T10:57:54;2.30;;;0.73;;
35110;SDS011;21290;50.158;8.658;2023-08-06T11:00:22;2.00;;;0.40;;
35110;SDS011;21290;50.158;8.658;2023-08-06T11:02:51;10.20;;;6.40;;
35110;SDS011;21290;50.158;8.658;2023-08-06T11:07:45;0.82;;;0.30;;
35110;SDS011;21290;50.158;8.658;2023-08-06T11:10:14;0.17;;;0.15;;
35110;SDS011;21290;50.158;8.658;2023-08-06T11:12:40;0.45;;;0.30;;
35110;SDS011;21290;50.158;8.658;2023-08-06T11:15:07;0.75;;;0.30;;
35110;SDS011;21290;50.158;8.658;2023-08-06T11:17:34;0.20;;;0.20;;
35110;SDS011;21290;50.158;8.658;2023-08-06T11:20:02;0.30;;;0.20;;
35110;SDS011;21290;50.158;8.658;2023-08-06T11:22:30;1.47;;;0.30;;
35110;SDS011;21290;50.158;8.658;2023-08-06T11:24:57;0.30;;;0.30;;
35110;SDS011;21290;50.158;8.658;2023-08-06T11:27:27;0.40;;;0.30;;
35110;SDS011;21290;50.158;8.658;2023-08-06T11:29:56;2.53;;;0.30;;
35110;SDS011;21290;50.158;8.658;2023-08-06T11:32:23;4.68;;;0.57;;
35110;SDS011;21290;50.158;8.658;2023-08-06T11:34:50;0.20;;;0.20;;
35110;SDS011;21290;50.158;8.658;2023-08-06T11:37:20;0.30;;;0.20;;
35110;SDS011;21290;50.158;8.658;2023-08-06T11:39:49;1.30;;;0.20;;
35110;SDS011;21290;50.158;8.658;2023-08-06T11:42:15;0.35;;;0.10;;
35110;SDS011;21290;50.158;8.658;2023-08-06T11:44:42;1.08;;;0.22;;
35110;SDS011;21290;50.158;8.658;2023-08-06T11:47:13;2.00;;;0.28;;
35110;SDS011;21290;50.158;8.658;2023-08-06T11:49:45;2.75;;;0.30;;
35110;SDS011;21290;50.158;8.658;2023-08-06T11:52:17;1.48;;;0.40;;
35110;SDS011;21290;50.158;8.658;2023-08-06T11:57:38;0.82;;;0.20;;
35110;SDS011;21290;50.158;8.658;2023-08-06T12:00:07;1.73;;;0.35;;
35110;SDS011;21290;50.158;8.658;2023-08-06T12:02:41;0.55;;;0.20;;
35110;SDS011;21290;50.158;8.658;2023-08-06T12:05:12;0.20;;;0.20;;
35110;SDS011;21290;50.158;8.658;2023-08-06T12:07:45;0.63;;;0.30;;
35110;SDS011;21290;50.158;8.658;2023-08-06T12:12:40;0.95;;;0.30;;
35110;SDS011;21290;50.158;8.658;2023-08-06T12:15:07;0.50;;;0.50;;
35110;SDS011;21290;50.158;8.658;2023-08-06T12:17:35;2.13;;;0.30;;
35110;SDS011;21290;50.158;8.658;2023-08-06T12:20:02;1.65;;;0.40;;
35110;SDS011;21290;50.158;8.658;2023-08-06T12:22:33;1.50;;;0.40;;
35110;SDS011;21290;50.158;8.658;2023-08-06T12:25:01;0.40;;;0.40;;
35110;SDS011;21290;50.158;8.658;2023-08-06T12:27:29;1.02;;;0.50;;
35110;SDS011;21290;50.158;8.658;2023-08-06T12:29:56;0.30;;;0.30;;
35110;SDS011;21290;50.158;8.658;2023-08-06T12:32:23;2.25;;;0.82;;
35110;SDS011;21290;50.158;8.658;2023-08-06T12:34:49;0.52;;;0.43;;
35110;SDS011;21290;50.158;8.658;2023-08-06T12:37:18;0.50;;;0.43;;
35110;SDS011;21290;50.158;8.658;2023-08-06T12:39:45;1.70;;;0.50;;
35110;SDS011;21290;50.158;8.658;2023-08-06T12:42:12;6.15;;;1.20;;
35110;SDS011;21290;50.158;8.658;2023-08-06T12:44:39;0.70;;;0.70;;
35110;SDS011;21290;50.158;8.658;2023-08-06T12:47:09;2.10;;;0.60;;
35110;SDS011;21290;50.158;8.658;2023-08-06T12:49:36;7.03;;;0.95;;
35110;SDS011;21290;50.158;8.658;2023-08-06T12:52:02;1.48;;;0.52;;
35110;SDS011;21290;50.158;8.658;2023-08-06T12:54:32;3.20;;;0.88;;
35110;SDS011;21290;50.158;8.658;2023-08-06T12:57:05;1.90;;;0.90;;
35110;SDS011;21290;50.158;8.658;2023-08-06T12:59:32;0.68;;;0.60;;
35110;SDS011;21290;50.158;8.658;2023-08-06T13:01:59;1.35;;;0.82;;
35110;SDS011;21290;50.158;8.658;2023-08-06T13:04:27;2.03;;;1.27;;
35110;SDS011;21290;50.158;8.658;2023-08-06T13:06:54;2.08;;;0.70;;
35110;SDS011;21290;50.158;8.658;2023-08-06T13:09:20;0.65;;;0.50;;
35110;SDS011;21290;50.158;8.658;2023-08-06T13:11:47;1.05;;;0.70;;
35110;SDS011;21290;50.158;8.658;2023-08-06T13:14:16;1.20;;;1.10;;
35110;SDS011;21290;50.158;8.658;2023-08-06T13:16:43;1.60;;;0.77;;
35110;SDS011;21290;50.158;8.658;2023-08-06T13:19:10;2.72;;;1.10;;
35110;SDS011;21290;50.158;8.658;2023-08-06T13:24:16;1.67;;;0.82;;
35110;SDS011;21290;50.158;8.658;2023-08-06T13:26:42;2.13;;;0.70;;
35110;SDS011;21290;50.158;8.658;2023-08-06T13:29:09;0.90;;;0.82;;
35110;SDS011;21290;50.158;8.658;2023-08-06T13:31:37;1.27;;;0.70;;
35110;SDS011;21290;50.158;8.658;2023-08-06T13:34:04;1.65;;;0.82;;
35110;SDS011;21290;50.158;8.658;2023-08-06T13:36:31;5.63;;;1.73;;
35110;SDS011;21290;50.158;8.658;2023-08-06T13:38:57;1.73;;;0.90;;
35110;SDS011;21290;50.158;8.658;2023-08-06T13:41:24;4.85;;;0.80;;
35110;SDS011;21290;50.158;8.658;2023-08-06T13:43:51;2.15;;;1.20;;
35110;SDS011;21290;50.158;8.658;2023-08-06T13:46:18;0.75;;;0.60;;
35110;SDS011;21290;50.158;8.658;2023-08-06T13:48:47;0.73;;;0.55;;
35110;SDS011;21290;50.158;8.658;2023-08-06T13:51:18;4.32;;;1.20;;
35110;SDS011;21290;50.158;8.658;2023-08-06T13:53:45;2.92;;;0.70;;
35110;SDS011;21290;50.158;8.658;2023-08-06T13:56:11;2.45;;;0.73;;
35110;SDS011;21290;50.158;8.658;2023-08-06T13:58:38;1.45;;;0.95;;
35110;SDS011;21290;50.158;8.658;2023-08-06T14:01:05;3.13;;;0.77;;
35110;SDS011;21290;50.158;8.658;2023-08-06T14:03:33;7.35;;;0.57;;
35110;SDS011;21290;50.158;8.658;2023-08-06T14:06:00;1.52;;;0.70;;
35110;SDS011;21290;50.158;8.658;2023-08-06T14:08:27;0.70;;;0.60;;
35110;SDS011;21290;50.158;8.658;2023-08-06T14:10:53;0.65;;;0.40;;
35110;SDS011;21290;50.158;8.658;2023-08-06T14:13:21;1.20;;;0.40;;
35110;SDS011;21290;50.158;8.658;2023-08-06T14:15:48;1.58;;;0.60;;
35110;SDS011;21290;50.158;8.658;2023-08-06T14:18:15;6.78;;;0.75;;
35110;SDS011;21290;50.158;8.658;2023-08-06T14:20:43;1.02;;;0.60;;
35110;SDS011;21290;50.158;8.658;2023-08-06T14:23:10;0.85;;;0.52;;
35110;SDS011;21290;50.158;8.658;2023-08-06T14:25:37;0.30;;;0.30;;
35110;SDS011;21290;50.158;8.658;2023-08-06T14:28:04;1.35;;;0.60;;
35110;SDS011;21290;50.158;8.658;2023-08-06T14:30:33;0.70;;;0.50;;
35110;SDS011;21290;50.158;8.658;2023-08-06T14:33:00;0.60;;;0.60;;
35110;SDS011;21290;50.158;8.658;2023-08-06T14:35:47;0.80;;;0.60;;
35110;SDS011;21290;50.158;8.658;2023-08-06T14:38:13;1.20;;;0.40;;
35110;SDS011;21290;50.158;8.658;2023-08-06T14:40:40;0.47;;;0.40;;
35110;SDS011;21290;50.158;8.658;2023-08-06T14:43:07;2.60;;;0.40;;
35110;SDS011;21290;50.158;8.658;2023-08-06T14:45:37;0.55;;;0.40;;
35110;SDS011;21290;50.158;8.658;2023-08-06T14:48:05;0.30;;;0.30;;
35110;SDS011;21290;50.158;8.658;2023-08-06T14:50:32;1.88;;;0.50;;
35110;SDS011;21290;50.158;8.658;2023-08-06T14:52:59;1.17;;;0.60;;
35110;SDS011;21290;50.158;8.658;2023-08-06T14:55:30;16.63;;;1.50;;
35110;SDS011;21290;50.158;8.658;2023-08-06T14:58:00;20.00;;;1.90;;
35110;SDS011;21290;50.158;8.658;2023-08-06T15:00:27;5.07;;;1.25;;
35110;SDS011;21290;50.158;8.658;2023-08-06T15:02:54;5.35;;;2.35;;
35110;SDS011;21290;50.158;8.658;2023-08-06T15:05:21;7.03;;;3.60;;
35110;SDS011;21290;50.158;8.658;2023-08-06T15:07:47;3.10;;;1.85;;
35110;SDS011;21290;50.158;8.658;2023-08-06T15:10:14;13.48;;;3.40;;
35110;SDS011;21290;50.158;8.658;2023-08-06T15:12:44;1.90;;;1.27;;
35110;SDS011;21290;50.158;8.658;2023-08-06T15:15:11;1.90;;;1.15;;
35110;SDS011;21290;50.158;8.658;2023-08-06T15:17:38;1.73;;;0.57;;
35110;SDS011;21290;50.158;8.658;2023-08-06T15:20:04;2.03;;;0.63;;
35110;SDS011;21290;50.158;8.658;2023-08-06T15:22:32;0.60;;;0.60;;
35110;SDS011;21290;50.158;8.658;2023-08-06T15:25:02;2.45;;;1.00;;
35110;SDS011;21290;50.158;8.658;2023-08-06T15:27:30;3.97;;;1.80;;